Decoded Metar for LKPR (PRAGUE in CZECH REPUBLIC) (IATA:PRG) | Meteo·Mobile Aviation Weather
aviador You're here:

LKPR Decoded Metar

PRAGUE in CZECH REPUBLIC
Report Time2018-11-19 04:30:00
UTC Time2018-11-19 04:49:14
Flight Rules vfr VFR
Wind010° at 05 kt
W.Decomp.*RWY 04: 4.2 kt HW 2.6 kt LCW
RWY 06: 3.1 kt HW 3.9 kt LCW
RWY 30: 1.9 kt HW 4.6 kt RCW
W.Rank010° ranks 26
Current wind is below 010° avg. (5.6)
Visibility8000 m
Phenomena:Light Snow
Clouds:Few 008 Hf
Scattered 020 Hf
Expected CloudBase > 400 ft AGL from Temp-Dew spread
CeilingNone
Temp-1°C (ISA -14)
Dew Point-2°C (93% RH)
AAT-5.1°C
QNH1017 hPa
Density Alt-525 ft
Elevation1,198 ft
Report Wrong Elevation
Raw Report
LKPR 190430Z 01005KT 8000 -SN FEW008 SCT020 M01/M02 Q1017
NOSIG=

Extra information for LKPR:More info

Metar Taf Metar & Taf Last 4 Metars F.Rules Stats Wind Profile Meteogram Temp Stats Airport Information Weather charts Add Link Nearby VenuesMetar ALERT Operation Metar Decoded Social comments